Time;durP1;ratioP1;P1;durP2;ratioP2;P2;SDS_P1;SDS_P2;PMS_P1;PMS_P2;Temp;Humidity;BMP_temperature;BMP_pressure;BME280_temperature;BME280_humidity;BME280_pressure;Samples;Min_cycle;Max_cycle;Signal;HPM_P1;HPM_P2
2020/12/29 10:25:15;;;;;;;10.20;6.22;;;;;;;;;;5089772;27;20338;-75
2020/12/29 10:27:45;;;;;;;6.47;4.03;;;;;;;;;;5083062;28;20027;-75
2020/12/29 10:30:10;;;;;;;8.80;5.03;;;;;;;;;;5075786;28;20023;-75
2020/12/29 10:32:37;;;;;;;9.35;5.40;;;;;;;;;;5093587;28;20021;-75
2020/12/29 10:35:03;;;;;;;9.82;5.85;;;;;;;;;;5077614;28;20039;-75
2020/12/29 10:37:29;;;;;;;7.93;4.72;;;;;;;;;;5076485;28;20024;-76
2020/12/29 10:39:55;;;;;;;13.43;7.85;;;;;;;;;;5075414;28;20544;-75
2020/12/29 10:42:21;;;;;;;9.40;5.05;;;;;;;;;;5076080;28;20100;-76
2020/12/29 10:44:47;;;;;;;6.68;3.08;;;;;;;;;;5075365;28;20029;-76
2020/12/29 10:47:13;;;;;;;7.53;4.30;;;;;;;;;;5076634;28;20596;-76
2020/12/29 10:49:39;;;;;;;5.80;3.33;;;;;;;;;;5074223;28;20028;-75
2020/12/29 10:52:05;;;;;;;5.70;3.33;;;;;;;;;;5076487;28;20502;-75
2020/12/29 10:54:31;;;;;;;6.55;3.88;;;;;;;;;;5077601;28;20039;-76
2020/12/29 10:56:57;;;;;;;4.38;3.00;;;;;;;;;;5084202;28;20105;-76
2020/12/29 10:59:23;;;;;;;8.05;3.95;;;;;;;;;;5078232;28;20043;-77
2020/12/29 11:01:49;;;;;;;5.10;2.80;;;;;;;;;;5075798;28;20032;-76
2020/12/29 11:04:15;;;;;;;6.55;3.75;;;;;;;;;;5076866;28;20056;-77
2020/12/29 11:06:41;;;;;;;8.40;4.30;;;;;;;;;;5076376;28;20398;-77
2020/12/29 11:09:07;;;;;;;6.10;3.40;;;;;;;;;;5086187;28;20016;-77
2020/12/29 11:11:33;;;;;;;6.28;3.17;;;;;;;;;;5093772;28;20569;-77
2020/12/29 11:13:59;;;;;;;7.93;4.10;;;;;;;;;;5078703;28;20036;-77
2020/12/29 11:16:24;;;;;;;4.78;2.75;;;;;;;;;;5076938;28;20108;-77
2020/12/29 11:18:50;;;;;;;3.92;2.20;;;;;;;;;;5076299;28;20186;-77
2020/12/29 11:21:17;;;;;;;5.28;2.47;;;;;;;;;;5075059;28;20031;-77
2020/12/29 11:23:43;;;;;;;7.03;3.22;;;;;;;;;;5075009;28;20037;-77
2020/12/29 11:26:09;;;;;;;7.78;3.70;;;;;;;;;;5076798;28;20167;-77
2020/12/29 11:28:35;;;;;;;3.47;1.92;;;;;;;;;;5096068;28;20025;-77
2020/12/29 11:31:01;;;;;;;10.55;6.50;;;;;;;;;;5073665;28;20024;-77
2020/12/29 11:33:27;;;;;;;5.88;3.10;;;;;;;;;;5076286;28;20515;-76
2020/12/29 11:35:53;;;;;;;5.40;2.90;;;;;;;;;;5074643;28;20074;-77
2020/12/29 11:38:22;;;;;;;5.70;2.92;;;;;;;;;;5060596;28;20540;-76
2020/12/29 11:40:48;;;;;;;5.15;2.35;;;;;;;;;;5063072;28;20029;-77
2020/12/29 11:43:14;;;;;;;3.47;2.22;;;;;;;;;;5062411;28;20031;-77
2020/12/29 11:45:40;;;;;;;5.43;3.05;;;;;;;;;;5065390;28;20409;-77
2020/12/29 11:48:06;;;;;;;6.13;3.05;;;;;;;;;;5063591;28;20054;-76
2020/12/29 11:50:32;;;;;;;4.75;2.78;;;;;;;;;;5060866;28;20032;-77
2020/12/29 11:52:58;;;;;;;5.50;3.50;;;;;;;;;;5062614;28;20025;-76
2020/12/29 11:55:24;;;;;;;5.32;3.05;;;;;;;;;;5061898;28;20604;-78
2020/12/29 11:57:50;;;;;;;8.02;3.33;;;;;;;;;;5060075;28;20067;-78
2020/12/29 12:00:17;;;;;;;4.95;2.65;;;;;;;;;;5061280;28;20099;-77
2020/12/29 12:02:43;;;;;;;5.45;2.78;;;;;;;;;;5059952;28;20021;-77
2020/12/29 12:05:09;;;;;;;6.03;3.13;;;;;;;;;;5059925;28;20518;-78
2020/12/29 12:07:35;;;;;;;5.28;3.35;;;;;;;;;;5062679;28;20036;-77
2020/12/29 12:10:02;;;;;;;4.93;2.70;;;;;;;;;;5060469;28;20029;-77
2020/12/29 12:12:28;;;;;;;7.25;3.67;;;;;;;;;;5064181;28;20383;-77
2020/12/29 12:14:54;;;;;;;5.25;3.10;;;;;;;;;;5063420;28;20033;-77
2020/12/29 12:17:20;;;;;;;5.65;3.00;;;;;;;;;;5077912;28;20036;-78
2020/12/29 12:19:46;;;;;;;5.78;3.10;;;;;;;;;;5061937;28;20033;-77
2020/12/29 12:22:11;;;;;;;6.78;3.30;;;;;;;;;;5064006;28;20063;-76
2020/12/29 12:24:37;;;;;;;5.97;3.38;;;;;;;;;;5075472;28;20033;-77
2020/12/29 12:27:03;;;;;;;4.82;3.00;;;;;;;;;;5048610;28;20439;-77
2020/12/29 12:29:30;;;;;;;5.72;2.85;;;;;;;;;;5059672;28;20513;-77
2020/12/29 12:31:56;;;;;;;6.30;3.05;;;;;;;;;;5060609;28;20075;-77
2020/12/29 12:34:21;;;;;;;6.25;3.20;;;;;;;;;;5075081;28;20029;-77
2020/12/29 12:36:47;;;;;;;5.60;2.97;;;;;;;;;;5070116;28;20025;-77
2020/12/29 12:39:13;;;;;;;6.18;3.30;;;;;;;;;;5059515;28;20095;-77
2020/12/29 12:41:42;;;;;;;7.07;3.20;;;;;;;;;;5075899;28;20479;-77
2020/12/29 12:44:08;;;;;;;6.47;3.40;;;;;;;;;;5063610;28;20418;-77
2020/12/29 12:46:34;;;;;;;6.60;3.30;;;;;;;;;;5060675;28;20075;-78
2020/12/29 12:49:00;;;;;;;7.28;3.60;;;;;;;;;;5058272;28;20359;-77
2020/12/29 12:51:25;;;;;;;6.70;3.75;;;;;;;;;;5062399;28;20036;-77
2020/12/29 12:53:51;;;;;;;7.03;3.80;;;;;;;;;;5060877;28;20093;-77
2020/12/29 12:56:19;;;;;;;5.13;3.33;;;;;;;;;;5056895;28;20031;-77
2020/12/29 12:58:45;;;;;;;4.97;3.05;;;;;;;;;;5063205;28;20021;-77
2020/12/29 13:01:16;;;;;;;5.38;3.30;;;;;;;;;;5059963;28;20028;-77
2020/12/29 13:03:42;;;;;;;7.07;3.80;;;;;;;;;;5047532;28;20037;-77
2020/12/29 13:06:08;;;;;;;6.68;3.28;;;;;;;;;;5058460;28;20104;-77
2020/12/29 13:08:34;;;;;;;6.75;3.70;;;;;;;;;;5057741;28;20487;-77
2020/12/29 13:11:00;;;;;;;7.38;3.92;;;;;;;;;;5064904;28;20032;-77
2020/12/29 13:13:26;;;;;;;7.13;3.95;;;;;;;;;;5058813;28;20116;-77
2020/12/29 13:15:54;;;;;;;7.30;4.28;;;;;;;;;;5065695;28;20041;-77
2020/12/29 13:18:20;;;;;;;6.90;3.83;;;;;;;;;;5061348;28;20385;-76
2020/12/29 13:20:48;;;;;;;8.38;5.50;;;;;;;;;;5060965;28;20025;-77
2020/12/29 13:23:14;;;;;;;6.72;4.47;;;;;;;;;;5060496;28;20029;-77
2020/12/29 13:25:40;;;;;;;8.40;5.30;;;;;;;;;;5062673;28;20020;-77
2020/12/29 13:28:06;;;;;;;8.63;5.50;;;;;;;;;;5059890;28;20537;-76
2020/12/29 13:30:32;;;;;;;8.00;5.10;;;;;;;;;;5060567;28;20025;-77
2020/12/29 13:32:58;;;;;;;16.65;9.57;;;;;;;;;;5066771;28;20071;-77
2020/12/29 13:35:24;;;;;;;8.52;6.85;;;;;;;;;;5058177;28;20162;-77
2020/12/29 13:37:50;;;;;;;8.52;5.20;;;;;;;;;;5059872;28;20048;-76
2020/12/29 13:40:16;;;;;;;9.93;5.70;;;;;;;;;;5058848;28;20548;-76
2020/12/29 13:42:45;;;;;;;9.02;5.18;;;;;;;;;;5062253;28;20044;-77
2020/12/29 13:45:11;;;;;;;8.23;5.38;;;;;;;;;;5057689;28;20025;-78
2020/12/29 13:47:37;;;;;;;7.57;5.10;;;;;;;;;;5058605;28;20025;-78
2020/12/29 13:50:03;;;;;;;7.63;5.47;;;;;;;;;;5062026;28;20028;-76
2020/12/29 13:52:29;;;;;;;8.27;5.00;;;;;;;;;;5048753;28;20439;-76
2020/12/29 13:54:57;;;;;;;8.57;5.82;;;;;;;;;;5063965;28;20044;-77
2020/12/29 13:57:23;;;;;;;10.32;6.75;;;;;;;;;;5067439;28;20485;-76
2020/12/29 13:59:49;;;;;;;11.23;7.32;;;;;;;;;;5078426;28;20028;-76
2020/12/29 14:02:15;;;;;;;11.13;6.75;;;;;;;;;;5063015;28;20291;-76
2020/12/29 14:04:41;;;;;;;8.20;6.22;;;;;;;;;;5068644;28;20375;-77
2020/12/29 14:07:07;;;;;;;13.13;8.65;;;;;;;;;;5070880;28;20028;-77
2020/12/29 14:09:33;;;;;;;10.35;7.03;;;;;;;;;;5061948;28;20438;-77
2020/12/29 14:11:59;;;;;;;25.63;17.38;;;;;;;;;;5063089;28;20112;-77
2020/12/29 14:14:25;;;;;;;22.27;15.48;;;;;;;;;;5082576;28;20021;-77
2020/12/29 14:16:52;;;;;;;18.05;12.00;;;;;;;;;;5050792;28;20051;-77
2020/12/29 14:19:18;;;;;;;11.75;7.63;;;;;;;;;;5068163;28;20029;-77
2020/12/29 14:21:45;;;;;;;10.50;7.10;;;;;;;;;;5070944;28;20025;-76
2020/12/29 14:24:12;;;;;;;11.45;7.90;;;;;;;;;;5064391;28;20037;-77
2020/12/29 14:26:38;;;;;;;10.82;6.70;;;;;;;;;;5065733;28;20028;-77
2020/12/29 14:29:03;;;;;;;11.02;5.93;;;;;;;;;;5062662;28;20021;-77
2020/12/29 14:31:29;;;;;;;8.63;5.55;;;;;;;;;;5066784;28;20044;-77
2020/12/29 14:33:55;;;;;;;9.57;5.80;;;;;;;;;;5061495;28;20021;-77
2020/12/29 14:36:21;;;;;;;8.73;6.15;;;;;;;;;;5059800;28;20399;-77
2020/12/29 14:38:48;;;;;;;8.75;6.15;;;;;;;;;;5064475;28;20029;-77
2020/12/29 14:41:15;;;;;;;12.63;8.50;;;;;;;;;;5062489;28;20024;-77
2020/12/29 14:43:41;;;;;;;13.85;9.30;;;;;;;;;;5062843;28;20036;-76
2020/12/29 14:46:07;;;;;;;17.45;10.85;;;;;;;;;;5063834;28;20021;-77
2020/12/29 14:48:33;;;;;;;16.08;10.32;;;;;;;;;;5063467;28;20040;-77
2020/12/29 14:50:59;;;;;;;23.33;14.30;;;;;;;;;;5064324;28;20021;-77
2020/12/29 14:53:25;;;;;;;24.45;15.45;;;;;;;;;;5064716;28;20108;-77
2020/12/29 14:55:51;;;;;;;29.00;15.00;;;;;;;;;;5054793;28;20020;-78
2020/12/29 14:58:17;;;;;;;11.27;6.93;;;;;;;;;;5073763;28;20138;-78
2020/12/29 15:00:43;;;;;;;9.52;5.80;;;;;;;;;;5063566;28;20522;-77
2020/12/29 15:03:10;;;;;;;7.03;5.20;;;;;;;;;;5064415;28;20044;-78
2020/12/29 15:05:39;;;;;;;10.13;5.85;;;;;;;;;;5062565;28;20043;-78
2020/12/29 15:08:05;;;;;;;8.90;5.30;;;;;;;;;;5069621;28;20055;-78
2020/12/29 15:10:31;;;;;;;8.70;5.72;;;;;;;;;;5066891;28;20025;-78
2020/12/29 15:12:56;;;;;;;8.25;5.30;;;;;;;;;;5071221;28;20055;-78
2020/12/29 15:15:22;;;;;;;10.30;6.70;;;;;;;;;;5055289;28;20070;-78
2020/12/29 15:17:48;;;;;;;9.07;6.07;;;;;;;;;;5082531;28;20495;-77
2020/12/29 15:20:16;;;;;;;11.18;6.50;;;;;;;;;;5072997;28;20025;-78
2020/12/29 15:22:42;;;;;;;10.88;6.28;;;;;;;;;;5069703;28;20025;-78
2020/12/29 15:25:08;;;;;;;9.82;6.07;;;;;;;;;;5064079;28;20127;-78
2020/12/29 15:27:34;;;;;;;9.55;5.32;;;;;;;;;;5070378;28;20032;-78
2020/12/29 15:30:00;;;;;;;8.65;5.80;;;;;;;;;;5067844;28;20049;-78
2020/12/29 15:32:26;;;;;;;9.32;5.30;;;;;;;;;;5065194;28;20403;-78
2020/12/29 15:34:52;;;;;;;8.65;5.43;;;;;;;;;;5059763;28;20029;-79
2020/12/29 15:37:18;;;;;;;8.95;5.32;;;;;;;;;;5063374;28;20029;-79
2020/12/29 15:39:44;;;;;;;10.10;6.10;;;;;;;;;;5068385;28;20029;-79
2020/12/29 15:42:10;;;;;;;11.07;7.00;;;;;;;;;;5073340;28;20028;-78
2020/12/29 15:44:36;;;;;;;9.93;6.60;;;;;;;;;;5071329;28;20033;-77
2020/12/29 15:47:02;;;;;;;10.02;6.57;;;;;;;;;;5074817;28;20033;-77
2020/12/29 15:49:28;;;;;;;10.70;6.38;;;;;;;;;;5069145;28;20104;-76
2020/12/29 15:51:54;;;;;;;10.40;6.53;;;;;;;;;;5066924;28;20075;-77
2020/12/29 15:54:20;;;;;;;9.93;5.82;;;;;;;;;;5046491;28;20025;-77
2020/12/29 15:56:46;;;;;;;9.88;6.20;;;;;;;;;;5076985;28;20140;-77
2020/12/29 15:59:12;;;;;;;8.18;5.30;;;;;;;;;;5052765;28;20056;-76
2020/12/29 16:01:38;;;;;;;8.75;4.72;;;;;;;;;;5080501;28;20045;-76
2020/12/29 16:04:04;;;;;;;8.02;5.60;;;;;;;;;;5048974;28;20521;-76
2020/12/29 16:06:30;;;;;;;8.48;5.05;;;;;;;;;;5066654;28;20090;-76
2020/12/29 16:08:56;;;;;;;8.00;5.13;;;;;;;;;;5069244;28;20048;-76
2020/12/29 16:11:22;;;;;;;9.88;5.68;;;;;;;;;;5064927;28;21068;-77
2020/12/29 16:13:48;;;;;;;8.35;4.82;;;;;;;;;;5066891;28;20120;-77
2020/12/29 16:16:14;;;;;;;7.30;4.63;;;;;;;;;;5064872;28;20028;-77
2020/12/29 16:18:40;;;;;;;8.15;4.78;;;;;;;;;;5063809;28;20055;-76
2020/12/29 16:21:06;;;;;;;8.40;5.00;;;;;;;;;;5074712;28;20032;-77
2020/12/29 16:23:32;;;;;;;7.63;4.63;;;;;;;;;;5077443;28;20073;-77
2020/12/29 16:25:58;;;;;;;8.50;4.82;;;;;;;;;;5062613;28;20025;-77
2020/12/29 16:28:24;;;;;;;9.43;4.90;;;;;;;;;;5065735;28;20043;-77
2020/12/29 16:30:50;;;;;;;7.55;4.70;;;;;;;;;;5059388;28;20033;-77
2020/12/29 16:33:16;;;;;;;7.88;4.30;;;;;;;;;;5049786;28;20021;-77
2020/12/29 16:35:45;;;;;;;8.32;4.50;;;;;;;;;;5062464;28;20490;-77
2020/12/29 16:38:11;;;;;;;7.18;4.22;;;;;;;;;;5049222;28;20079;-77
2020/12/29 16:40:37;;;;;;;6.82;4.10;;;;;;;;;;5063461;28;20024;-77
2020/12/29 16:43:03;;;;;;;7.15;4.03;;;;;;;;;;5066039;28;20025;-77
2020/12/29 16:45:29;;;;;;;8.10;4.10;;;;;;;;;;5058999;28;20021;-77
2020/12/29 16:47:55;;;;;;;7.05;3.97;;;;;;;;;;5052080;28;20028;-77
2020/12/29 16:50:21;;;;;;;6.47;4.07;;;;;;;;;;5062235;28;20036;-77
2020/12/29 16:52:47;;;;;;;8.25;4.68;;;;;;;;;;5065076;28;20464;-77
2020/12/29 16:55:13;;;;;;;7.60;4.40;;;;;;;;;;5063436;28;20028;-77
2020/12/29 16:57:39;;;;;;;7.47;4.50;;;;;;;;;;5062850;28;20127;-77
2020/12/29 17:00:05;;;;;;;6.85;4.13;;;;;;;;;;5067192;28;20029;-76
2020/12/29 17:02:31;;;;;;;7.15;4.25;;;;;;;;;;5064267;28;20506;-77
2020/12/29 17:04:59;;;;;;;9.50;3.92;;;;;;;;;;5069167;28;20029;-77
2020/12/29 17:07:25;;;;;;;7.15;4.05;;;;;;;;;;5066606;28;20024;-77
2020/12/29 17:09:51;;;;;;;6.40;4.10;;;;;;;;;;5062497;28;20025;-78
2020/12/29 17:12:18;;;;;;;8.38;4.43;;;;;;;;;;5067461;28;20025;-77
2020/12/29 17:14:44;;;;;;;10.25;4.75;;;;;;;;;;5066849;28;20063;-77
2020/12/29 17:17:11;;;;;;;10.55;5.72;;;;;;;;;;5066373;28;20025;-77
2020/12/29 17:19:37;;;;;;;9.95;5.47;;;;;;;;;;5064279;28;20023;-77
2020/12/29 17:22:03;;;;;;;10.10;5.00;;;;;;;;;;5063794;28;20548;-78
2020/12/29 17:24:29;;;;;;;11.75;6.28;;;;;;;;;;5063120;28;20032;-78
2020/12/29 17:26:55;;;;;;;7.70;4.50;;;;;;;;;;5065290;28;20029;-78
2020/12/29 17:29:21;;;;;;;10.30;6.45;;;;;;;;;;5063374;28;20025;-78
2020/12/29 17:31:47;;;;;;;6.65;4.15;;;;;;;;;;5069069;28;20066;-77
2020/12/29 17:34:13;;;;;;;8.57;4.20;;;;;;;;;;5063680;28;20132;-78
2020/12/29 17:36:39;;;;;;;8.30;4.28;;;;;;;;;;5057630;28;20024;-78
2020/12/29 17:39:05;;;;;;;6.47;3.92;;;;;;;;;;5067961;28;20086;-78
2020/12/29 17:41:31;;;;;;;8.30;5.10;;;;;;;;;;5067547;28;20040;-77
2020/12/29 17:43:57;;;;;;;7.65;4.45;;;;;;;;;;5067770;28;20071;-78
2020/12/29 17:46:23;;;;;;;7.80;4.32;;;;;;;;;;5063351;28;20021;-78
2020/12/29 17:48:49;;;;;;;7.97;4.18;;;;;;;;;;5062372;28;20028;-78
2020/12/29 17:51:16;;;;;;;8.65;4.13;;;;;;;;;;5061534;28;20055;-78
2020/12/29 17:53:42;;;;;;;7.68;4.65;;;;;;;;;;5067073;28;20407;-78
2020/12/29 17:56:08;;;;;;;7.70;4.38;;;;;;;;;;5069600;28;20116;-77
2020/12/29 17:58:37;;;;;;;9.07;4.55;;;;;;;;;;5060922;28;20031;-78
2020/12/29 18:01:04;;;;;;;7.45;4.22;;;;;;;;;;5063098;28;20075;-78
2020/12/29 18:03:30;;;;;;;7.88;4.47;;;;;;;;;;5083977;28;20029;-78
2020/12/29 18:05:56;;;;;;;7.20;4.53;;;;;;;;;;5068015;28;20025;-77
2020/12/29 18:08:22;;;;;;;7.60;4.30;;;;;;;;;;5071915;28;20028;-78
2020/12/29 18:10:48;;;;;;;7.15;4.13;;;;;;;;;;5075188;28;20023;-78
2020/12/29 18:13:14;;;;;;;6.35;3.95;;;;;;;;;;5065688;28;20032;-78
2020/12/29 18:15:40;;;;;;;7.65;4.10;;;;;;;;;;5063847;28;20074;-78
2020/12/29 18:18:06;;;;;;;9.60;5.18;;;;;;;;;;5068319;28;20036;-78
2020/12/29 18:20:32;;;;;;;8.20;4.63;;;;;;;;;;5068307;28;20025;-78
2020/12/29 18:22:59;;;;;;;7.22;4.05;;;;;;;;;;5063405;28;20037;-78
2020/12/29 18:25:24;;;;;;;7.70;4.25;;;;;;;;;;5068138;28;20024;-79
2020/12/29 18:27:50;;;;;;;7.13;3.80;;;;;;;;;;5066387;28;20832;-78
2020/12/29 18:30:16;;;;;;;8.20;4.32;;;;;;;;;;5063855;28;20024;-78
2020/12/29 18:32:42;;;;;;;8.02;4.40;;;;;;;;;;5065404;28;20024;-78
2020/12/29 18:35:08;;;;;;;9.43;4.80;;;;;;;;;;5062763;28;20090;-78
2020/12/29 18:37:34;;;;;;;7.25;3.88;;;;;;;;;;5067889;28;20021;-78
2020/12/29 18:40:00;;;;;;;5.38;3.42;;;;;;;;;;5075179;28;20390;-77
2020/12/29 18:42:27;;;;;;;7.22;4.15;;;;;;;;;;5082904;28;20028;-77
2020/12/29 18:44:53;;;;;;;6.47;3.85;;;;;;;;;;5081705;28;20025;-77
2020/12/29 18:47:19;;;;;;;8.15;4.32;;;;;;;;;;5085036;28;20127;-78
2020/12/29 18:49:45;;;;;;;6.93;4.50;;;;;;;;;;5083672;28;20024;-78
2020/12/29 18:52:11;;;;;;;8.48;4.75;;;;;;;;;;5084334;28;20017;-78
2020/12/29 18:54:37;;;;;;;8.88;4.85;;;;;;;;;;5082060;28;20429;-78
2020/12/29 18:57:07;;;;;;;10.95;6.45;;;;;;;;;;5075190;28;20051;-78
2020/12/29 18:59:35;;;;;;;8.35;5.18;;;;;;;;;;5088335;28;20101;-78
2020/12/29 19:02:03;;;;;;;8.35;4.32;;;;;;;;;;5084744;28;20028;-78
2020/12/29 19:04:29;;;;;;;8.40;4.05;;;;;;;;;;5087851;28;20032;-78
2020/12/29 19:06:55;;;;;;;4.53;3.30;;;;;;;;;;5071897;28;20021;-78
2020/12/29 19:09:24;;;;;;;6.45;4.00;;;;;;;;;;5063464;28;20487;-78
2020/12/29 19:11:50;;;;;;;6.63;4.00;;;;;;;;;;5068092;28;20028;-77
2020/12/29 19:14:17;;;;;;;7.13;3.97;;;;;;;;;;4716142;28;9999832;-78
2020/12/29 19:16:43;;;;;;;7.82;4.95;;;;;;;;;;5059298;28;20467;-78
2020/12/29 19:19:09;;;;;;;6.93;3.88;;;;;;;;;;5061882;28;20042;-78
2020/12/29 19:21:35;;;;;;;8.18;4.13;;;;;;;;;;5066504;28;20059;-78
2020/12/29 19:24:01;;;;;;;8.18;4.30;;;;;;;;;;5060110;28;20036;-78
2020/12/29 19:26:27;;;;;;;6.82;4.80;;;;;;;;;;5060559;28;20051;-78
2020/12/29 19:28:53;;;;;;;7.80;4.00;;;;;;;;;;5063959;28;20487;-77
2020/12/29 19:31:19;;;;;;;7.05;3.40;;;;;;;;;;5059634;28;20029;-77
2020/12/29 19:33:45;;;;;;;5.68;3.00;;;;;;;;;;5071650;28;20039;-77
2020/12/29 19:36:12;;;;;;;4.30;2.90;;;;;;;;;;5063431;28;20025;-78
2020/12/29 19:38:38;;;;;;;5.60;3.17;;;;;;;;;;5061716;28;20071;-78
2020/12/29 19:41:07;;;;;;;7.82;4.18;;;;;;;;;;5062110;28;20033;-77
2020/12/29 19:43:33;;;;;;;8.07;4.20;;;;;;;;;;5060789;28;20052;-77
2020/12/29 19:46:00;;;;;;;6.95;3.92;;;;;;;;;;5062701;28;20036;-77
2020/12/29 19:48:26;;;;;;;6.60;3.97;;;;;;;;;;5061166;28;20100;-77
2020/12/29 19:50:52;;;;;;;5.82;3.70;;;;;;;;;;5058566;28;20091;-77
2020/12/29 19:53:18;;;;;;;6.03;3.30;;;;;;;;;;5061392;28;20114;-77
2020/12/29 19:55:44;;;;;;;7.45;3.92;;;;;;;;;;5061828;28;20034;-78
2020/12/29 19:58:10;;;;;;;7.18;4.00;;;;;;;;;;5059462;28;20844;-78
2020/12/29 20:00:36;;;;;;;9.85;5.68;;;;;;;;;;5058603;28;20108;-77
2020/12/29 20:03:02;;;;;;;6.60;3.60;;;;;;;;;;5064585;28;20017;-78
2020/12/29 20:05:28;;;;;;;7.95;5.03;;;;;;;;;;5060174;28;20024;-78
2020/12/29 20:07:54;;;;;;;6.07;3.30;;;;;;;;;;5062456;28;20048;-78
2020/12/29 20:10:20;;;;;;;7.10;3.45;;;;;;;;;;5059778;28;20029;-78
2020/12/29 20:12:46;;;;;;;6.03;3.05;;;;;;;;;;5060351;28;20127;-77
2020/12/29 20:15:12;;;;;;;5.35;3.25;;;;;;;;;;5060063;28;20039;-78
2020/12/29 20:17:38;;;;;;;5.60;2.90;;;;;;;;;;5056207;28;20051;-77
2020/12/29 20:20:04;;;;;;;6.20;3.33;;;;;;;;;;5055977;28;20028;-77
2020/12/29 20:22:30;;;;;;;5.57;3.55;;;;;;;;;;5059591;28;20029;-78
2020/12/29 20:24:57;;;;;;;6.53;3.22;;;;;;;;;;5061440;28;20033;-78
2020/12/29 20:27:23;;;;;;;6.55;3.15;;;;;;;;;;5060546;28;20063;-78
2020/12/29 20:29:49;;;;;;;5.75;3.45;;;;;;;;;;5058584;28;20498;-78
2020/12/29 20:32:15;;;;;;;6.10;3.50;;;;;;;;;;5055976;28;20135;-77
2020/12/29 20:34:40;;;;;;;6.43;3.28;;;;;;;;;;5058315;28;20100;-77
2020/12/29 20:37:07;;;;;;;5.25;3.38;;;;;;;;;;5066483;28;20067;-78
2020/12/29 20:39:33;;;;;;;7.55;3.42;;;;;;;;;;5058729;28;20029;-78
2020/12/29 20:41:59;;;;;;;5.35;3.35;;;;;;;;;;5079072;28;20119;-78
2020/12/29 20:44:25;;;;;;;5.47;2.97;;;;;;;;;;5058557;28;20124;-78
2020/12/29 20:46:51;;;;;;;6.38;3.25;;;;;;;;;;5058948;28;20069;-77
2020/12/29 20:49:18;;;;;;;6.22;3.15;;;;;;;;;;5058245;28;20078;-78
2020/12/29 20:51:44;;;;;;;6.32;3.38;;;;;;;;;;5061405;28;20028;-78
2020/12/29 20:54:10;;;;;;;5.55;3.10;;;;;;;;;;5064859;28;20032;-77
2020/12/29 20:56:36;;;;;;;6.75;3.50;;;;;;;;;;5057433;28;20155;-78
2020/12/29 20:59:02;;;;;;;6.85;3.28;;;;;;;;;;5040136;28;20037;-78
2020/12/29 21:01:28;;;;;;;5.47;3.03;;;;;;;;;;5064180;28;20032;-77
2020/12/29 21:03:54;;;;;;;5.32;3.17;;;;;;;;;;5055907;28;20032;-78
2020/12/29 21:06:20;;;;;;;5.47;3.20;;;;;;;;;;5061560;28;20082;-78
2020/12/29 21:08:46;;;;;;;6.32;3.00;;;;;;;;;;5057571;28;20032;-77
2020/12/29 21:11:19;;;;;;;5.25;2.85;;;;;;;;;;5058859;28;20021;-77
2020/12/29 21:13:48;;;;;;;5.50;3.08;;;;;;;;;;5075786;28;20060;-77
2020/12/29 21:16:21;;;;;;;5.75;3.20;;;;;;;;;;5059158;28;20472;-77
2020/12/29 21:18:47;;;;;;;5.32;2.90;;;;;;;;;;5059003;28;20438;-78
2020/12/29 21:21:23;;;;;;;5.65;3.10;;;;;;;;;;5059768;28;20482;-77
2020/12/29 21:23:49;;;;;;;5.25;3.20;;;;;;;;;;5058078;28;20495;-78
2020/12/29 21:26:19;;;;;;;6.32;2.90;;;;;;;;;;5063418;28;20031;-78
2020/12/29 21:28:45;;;;;;;6.57;3.03;;;;;;;;;;5073531;28;20587;-77
2020/12/29 21:31:15;;;;;;;4.72;3.13;;;;;;;;;;5057060;28;20116;-78
2020/12/29 21:33:42;;;;;;;5.53;3.05;;;;;;;;;;5056977;28;20029;-77
2020/12/29 21:36:08;;;;;;;5.43;3.25;;;;;;;;;;5061768;28;20025;-78
2020/12/29 21:38:34;;;;;;;5.07;2.80;;;;;;;;;;5057275;28;20487;-77
2020/12/29 21:41:03;;;;;;;5.28;3.08;;;;;;;;;;5057658;28;20041;-78
2020/12/29 21:43:29;;;;;;;4.68;2.95;;;;;;;;;;5072900;28;20021;-77
2020/12/29 21:45:55;;;;;;;4.10;2.63;;;;;;;;;;5059758;28;20489;-78
2020/12/29 21:48:21;;;;;;;5.25;3.10;;;;;;;;;;5057329;28;20107;-78
2020/12/29 21:50:47;;;;;;;4.95;2.83;;;;;;;;;;5055683;28;20025;-78
2020/12/29 21:53:12;;;;;;;6.32;2.90;;;;;;;;;;5054937;28;20035;-78
2020/12/29 21:55:38;;;;;;;6.22;2.97;;;;;;;;;;5070141;28;20459;-78
2020/12/29 21:58:04;;;;;;;4.72;2.80;;;;;;;;;;5059577;28;20024;-78
2020/12/29 22:00:30;;;;;;;4.32;2.70;;;;;;;;;;5062575;28;20031;-77
2020/12/29 22:02:56;;;;;;;3.92;2.63;;;;;;;;;;5058037;28;20028;-77
2020/12/29 22:05:22;;;;;;;5.43;3.00;;;;;;;;;;5053840;28;20052;-78
2020/12/29 22:07:48;;;;;;;4.78;2.85;;;;;;;;;;5053700;28;20037;-78
2020/12/29 22:10:14;;;;;;;4.18;2.70;;;;;;;;;;5054095;28;20027;-77
2020/12/29 22:12:40;;;;;;;5.93;2.85;;;;;;;;;;5059960;28;20490;-77
2020/12/29 22:15:06;;;;;;;4.40;2.80;;;;;;;;;;5057377;28;20029;-79
2020/12/29 22:17:32;;;;;;;5.07;2.97;;;;;;;;;;5055935;28;20103;-77
2020/12/29 22:19:58;;;;;;;5.20;2.88;;;;;;;;;;5055899;28;20368;-77
2020/12/29 22:22:24;;;;;;;5.22;3.13;;;;;;;;;;5058053;28;20033;-77
2020/12/29 22:24:50;;;;;;;5.05;2.88;;;;;;;;;;5057338;28;20568;-77
2020/12/29 22:27:16;;;;;;;4.43;2.67;;;;;;;;;;5055006;28;20072;-77
2020/12/29 22:29:42;;;;;;;4.57;2.70;;;;;;;;;;5057110;28;20020;-77
2020/12/29 22:32:08;;;;;;;4.18;2.45;;;;;;;;;;5057073;28;20072;-77
2020/12/29 22:34:34;;;;;;;4.85;2.78;;;;;;;;;;5055389;28;20719;-77
2020/12/29 22:37:01;;;;;;;4.32;2.70;;;;;;;;;;5059475;28;20031;-76
2020/12/29 22:39:27;;;;;;;3.95;2.65;;;;;;;;;;5058442;28;20382;-76
2020/12/29 22:41:57;;;;;;;3.72;2.70;;;;;;;;;;5065650;28;20029;-76
2020/12/29 22:44:22;;;;;;;5.15;3.08;;;;;;;;;;5053690;28;20029;-76
2020/12/29 22:46:48;;;;;;;4.95;2.67;;;;;;;;;;5041186;28;20029;-76
2020/12/29 22:49:14;;;;;;;4.10;2.85;;;;;;;;;;5057652;28;20064;-76
2020/12/29 22:51:40;;;;;;;4.63;2.85;;;;;;;;;;5059339;28;20029;-76
2020/12/29 22:54:06;;;;;;;4.63;2.60;;;;;;;;;;5057371;28;20068;-76
2020/12/29 22:56:32;;;;;;;5.78;3.13;;;;;;;;;;5055688;28;20075;-76
2020/12/29 22:58:59;;;;;;;5.88;3.20;;;;;;;;;;5053594;28;20053;-76
2020/12/29 23:01:38;;;;;;;5.13;2.92;;;;;;;;;;5053299;28;20021;-76
2020/12/29 23:04:08;;;;;;;5.88;3.08;;;;;;;;;;5059304;28;20083;-76
2020/12/29 23:06:44;;;;;;;5.03;3.15;;;;;;;;;;5059397;28;20033;-76
2020/12/29 23:09:10;;;;;;;4.97;3.10;;;;;;;;;;5073032;28;20485;-75
2020/12/29 23:11:37;;;;;;;4.70;2.80;;;;;;;;;;5058238;28;20067;-76
2020/12/29 23:14:03;;;;;;;5.65;3.17;;;;;;;;;;5054967;28;20052;-76
2020/12/29 23:16:29;;;;;;;4.88;3.00;;;;;;;;;;5057045;28;20048;-76
2020/12/29 23:18:55;;;;;;;4.85;2.92;;;;;;;;;;5053119;28;20025;-75
2020/12/29 23:21:21;;;;;;;5.15;3.00;;;;;;;;;;5055466;28;20704;-76
2020/12/29 23:23:47;;;;;;;5.55;2.95;;;;;;;;;;5056152;28;20122;-76
2020/12/29 23:26:13;;;;;;;5.65;3.42;;;;;;;;;;5054315;28;20017;-76
2020/12/29 23:28:42;;;;;;;6.68;3.50;;;;;;;;;;5067333;28;20028;-76
2020/12/29 23:31:12;;;;;;;4.15;3.20;;;;;;;;;;5056741;28;20029;-76
2020/12/29 23:33:38;;;;;;;4.65;3.17;;;;;;;;;;5061276;28;20530;-76
2020/12/29 23:36:04;;;;;;;4.28;3.10;;;;;;;;;;5047413;28;20025;-76
2020/12/29 23:38:30;;;;;;;4.65;3.30;;;;;;;;;;5058291;28;20024;-76
2020/12/29 23:40:56;;;;;;;5.13;3.13;;;;;;;;;;5064207;28;20697;-76
2020/12/29 23:43:22;;;;;;;6.47;3.70;;;;;;;;;;5061724;28;20083;-77
2020/12/29 23:45:48;;;;;;;6.65;3.60;;;;;;;;;;5061107;28;20074;-77
2020/12/29 23:48:14;;;;;;;6.97;3.38;;;;;;;;;;5060755;28;20530;-76
2020/12/29 23:50:40;;;;;;;6.22;3.58;;;;;;;;;;5060143;28;20120;-76
2020/12/29 23:53:06;;;;;;;5.78;3.33;;;;;;;;;;5060413;28;20091;-76
2020/12/29 23:55:33;;;;;;;6.68;3.33;;;;;;;;;;5057277;28;20029;-76
2020/12/29 23:57:59;;;;;;;6.10;3.22;;;;;;;;;;5061065;28;20035;-77
